Terminal Aerodrome Forecast
Issued by NWS

Current Version | Previous Version | Graphics & Text | Print | Product List | Glossary On
Versions: 1 2 3 4 5 6 7 8 9 10 11 12 13 14 15 16 17 18 19 20 21 22
000
FTUS41 KILN 191100
TAFLUK
TAF
KLUK 191131Z 1912/2012 00000KT P6SM SKC
      TEMPO 1912/1913 5SM BR SCT005
     FM191300 08004KT P6SM SKC
     FM191500 09008KT P6SM FEW050
     FM192300 11004KT P6SM SKC
     FM201000 18005KT P6SM BKN050=

USA.gov is the U.S. government's official web portal to all federal, state and local government web resources and services.